createdAt,value
2023-02-27T00:04:50.441Z,4.40
2023-02-27T00:09:53.487Z,3.50
2023-02-27T00:14:56.141Z,3.00
2023-02-27T00:19:58.665Z,2.70
2023-02-27T00:25:01.284Z,2.40
2023-02-27T00:30:09.526Z,2.50
2023-02-27T00:35:12.820Z,1.90
2023-02-27T00:40:15.831Z,1.40
2023-02-27T00:45:20.479Z,1.00
2023-02-27T00:50:24.084Z,1.10
2023-02-27T00:55:27.462Z,1.30
2023-02-27T01:00:30.236Z,1.20
2023-02-27T01:05:32.715Z,0.90
2023-02-27T01:10:35.325Z,0.80
2023-02-27T01:15:38.047Z,0.50
2023-02-27T01:20:40.957Z,0.30
2023-02-27T01:25:43.529Z,0.00
2023-02-27T01:30:46.135Z,-0.10
2023-02-27T01:35:50.134Z,0.60
2023-02-27T01:40:53.384Z,0.30
2023-02-27T01:45:56.033Z,0.70
2023-02-27T01:51:03.674Z,0.30
2023-02-27T01:56:16.519Z,-0.10
2023-02-27T02:01:20.629Z,0.20
2023-02-27T02:06:24.030Z,0.50
2023-02-27T02:11:28.978Z,0.30
2023-02-27T02:17:13.744Z,0.20
2023-02-27T02:22:42.691Z,0.30
2023-02-27T02:28:00.001Z,0.40
2023-02-27T02:33:05.247Z,0.60
2023-02-27T02:38:32.530Z,0.60
2023-02-27T02:43:43.460Z,1.00
2023-02-27T02:48:59.724Z,1.00
2023-02-27T02:54:40.996Z,1.10
2023-02-27T03:00:06.270Z,1.10
2023-02-27T03:05:13.715Z,1.30
2023-02-27T03:10:21.211Z,1.20
2023-02-27T03:15:28.296Z,1.70
2023-02-27T03:20:42.851Z,1.80
2023-02-27T03:25:48.202Z,1.40
2023-02-27T03:30:55.156Z,1.10
2023-02-27T03:36:03.332Z,1.30
2023-02-27T03:41:37.684Z,1.50
2023-02-27T03:46:59.964Z,1.90
2023-02-27T03:52:03.934Z,1.80
2023-02-27T03:57:08.613Z,1.70
2023-02-27T04:02:11.984Z,1.90
2023-02-27T04:07:25.233Z,2.00
2023-02-27T04:12:52.545Z,1.90
2023-02-27T04:18:24.973Z,1.80
2023-02-27T04:23:48.030Z,1.70
2023-02-27T04:29:20.860Z,1.30
2023-02-27T04:34:32.084Z,1.70
2023-02-27T04:39:46.429Z,1.90
2023-02-27T04:44:51.537Z,2.50
2023-02-27T04:50:02.994Z,2.20
2023-02-27T04:55:11.194Z,1.90
2023-02-27T05:00:16.538Z,1.70
2023-02-27T05:05:27.327Z,1.30
2023-02-27T05:11:07.265Z,1.60
2023-02-27T05:16:23.402Z,1.70
2023-02-27T05:21:41.180Z,1.60
2023-02-27T05:26:52.438Z,1.40
2023-02-27T05:32:04.940Z,1.50
2023-02-27T05:37:21.764Z,1.80
2023-02-27T05:42:30.632Z,1.70
2023-02-27T05:47:37.337Z,1.50
2023-02-27T05:52:42.777Z,1.40
2023-02-27T05:58:01.660Z,1.50
2023-02-27T06:03:04.334Z,1.50
2023-02-27T06:08:07.037Z,1.70
2023-02-27T06:13:09.543Z,2.50
2023-02-27T06:18:13.114Z,6.10
2023-02-27T06:23:15.688Z,5.20
2023-02-27T06:28:18.244Z,3.80
2023-02-27T06:33:20.734Z,3.10
2023-02-27T06:38:23.273Z,2.50
2023-02-27T06:43:26.126Z,2.40
2023-02-27T06:48:28.830Z,2.10
2023-02-27T06:53:31.264Z,2.10
2023-02-27T06:58:33.771Z,2.50
2023-02-27T07:03:36.320Z,2.40
2023-02-27T07:08:38.867Z,2.70
2023-02-27T07:14:01.468Z,2.40
2023-02-27T07:19:03.959Z,2.70
2023-02-27T07:24:06.733Z,2.70
2023-02-27T07:29:09.876Z,2.50
2023-02-27T07:34:13.808Z,2.70
2023-02-27T07:39:16.423Z,2.40
2023-02-27T07:44:19.050Z,4.10
2023-02-27T07:49:21.669Z,5.40
2023-02-27T07:54:24.352Z,3.70
2023-02-27T07:59:26.949Z,3.30
2023-02-27T08:04:29.468Z,3.30
2023-02-27T08:09:32.072Z,5.30
2023-02-27T08:14:34.681Z,4.40
2023-02-27T08:19:37.311Z,3.80
2023-02-27T08:24:40.620Z,3.70
2023-02-27T08:29:43.471Z,3.60
2023-02-27T08:34:45.926Z,3.70
2023-02-27T08:39:48.440Z,3.40
2023-02-27T08:44:51.379Z,3.30
2023-02-27T08:49:54.069Z,3.40
2023-02-27T08:54:56.612Z,3.00
2023-02-27T08:59:59.134Z,2.70
2023-02-27T09:05:02.063Z,2.90
2023-02-27T09:10:04.931Z,3.10
2023-02-27T09:15:08.169Z,3.60
2023-02-27T09:20:11.525Z,3.80
2023-02-27T09:25:14.046Z,3.20
2023-02-27T09:30:16.846Z,3.40
2023-02-27T09:35:22.491Z,4.20
2023-02-27T09:45:31.546Z,4.60
2023-02-27T09:50:40.342Z,4.90
2023-02-27T09:55:45.938Z,4.60
2023-02-27T10:00:53.034Z,4.70
2023-02-27T10:06:17.112Z,4.50
2023-02-27T10:11:32.593Z,4.80
2023-02-27T10:16:35.279Z,4.60
2023-02-27T10:21:44.062Z,4.10
2023-02-27T10:26:49.897Z,4.00
2023-02-27T10:32:07.803Z,4.10
2023-02-27T10:37:15.333Z,4.50
2023-02-27T10:42:19.175Z,6.30
2023-02-27T10:47:23.907Z,6.60
2023-02-27T10:52:26.727Z,6.60
2023-02-27T10:57:40.638Z,6.90
2023-02-27T11:02:44.040Z,7.00
2023-02-27T11:07:46.741Z,7.80
2023-02-27T11:13:18.710Z,6.90
2023-02-27T11:18:29.529Z,5.80
2023-02-27T11:23:34.024Z,6.20
2023-02-27T11:28:36.556Z,7.20
2023-02-27T11:33:51.246Z,7.80
2023-02-27T11:38:55.328Z,7.60
2023-02-27T11:43:59.772Z,8.20
2023-02-27T11:49:02.337Z,9.30
2023-02-27T11:54:32.430Z,10.00
2023-02-27T11:59:47.942Z,8.70
2023-02-27T12:05:06.967Z,7.80
2023-02-27T12:10:34.270Z,8.50
2023-02-27T12:15:59.236Z,8.00
2023-02-27T12:21:12.062Z,7.00
2023-02-27T12:26:19.602Z,7.10
2023-02-27T12:31:37.219Z,7.10
2023-02-27T12:36:39.787Z,7.40
2023-02-27T12:42:12.919Z,7.00
2023-02-27T12:47:39.733Z,5.80
2023-02-27T12:53:00.960Z,5.30
2023-02-27T12:58:26.052Z,5.00
2023-02-27T13:03:54.356Z,4.70
2023-02-27T13:09:21.324Z,4.60
2023-02-27T13:14:29.797Z,4.60
2023-02-27T13:19:41.141Z,5.30
2023-02-27T13:24:48.505Z,5.10
2023-02-27T13:30:16.028Z,6.20
2023-02-27T13:35:49.923Z,6.40
2023-02-27T13:40:52.583Z,5.60
2023-02-27T13:45:57.586Z,6.50
2023-02-27T13:51:01.481Z,6.80
2023-02-27T13:56:22.801Z,6.00
2023-02-27T14:01:28.762Z,5.10
2023-02-27T14:06:32.730Z,4.70
2023-02-27T14:11:39.900Z,5.20
2023-02-27T14:16:44.076Z,4.70
2023-02-27T14:22:14.123Z,3.50
2023-02-27T14:27:23.172Z,3.20
2023-02-27T14:32:38.370Z,3.30
2023-02-27T14:37:40.966Z,3.40
2023-02-27T14:43:21.715Z,3.50
2023-02-27T14:48:27.853Z,3.70
2023-02-27T14:53:30.472Z,3.30
2023-02-27T14:58:33.042Z,3.30
2023-02-27T15:03:50.654Z,3.10
2023-02-27T15:08:57.140Z,4.40
2023-02-27T15:14:02.309Z,4.10
2023-02-27T15:19:13.405Z,4.00
2023-02-27T15:24:48.887Z,5.70
2023-02-27T15:29:57.521Z,4.90
2023-02-27T15:35:22.438Z,4.60
2023-02-27T15:40:31.773Z,4.20
2023-02-27T15:45:36.469Z,3.90
2023-02-27T15:50:42.633Z,4.20
2023-02-27T15:55:50.954Z,4.00
2023-02-27T16:01:01.815Z,3.90
2023-02-27T16:06:20.641Z,4.10
2023-02-27T16:11:28.761Z,3.70
2023-02-27T16:16:35.340Z,5.40
2023-02-27T16:21:37.838Z,5.40
2023-02-27T16:26:40.432Z,4.50
2023-02-27T16:31:53.374Z,3.80
2023-02-27T16:36:58.579Z,3.70
2023-02-27T16:42:02.062Z,3.40
2023-02-27T16:47:04.828Z,3.10
2023-02-27T16:52:11.843Z,2.90
2023-02-27T16:57:14.363Z,2.80
2023-02-27T17:02:16.826Z,2.80
2023-02-27T17:07:19.865Z,2.60
2023-02-27T17:12:22.409Z,2.90
2023-02-27T17:17:24.807Z,3.40
2023-02-27T17:22:27.238Z,3.40
2023-02-27T17:27:29.673Z,3.10
2023-02-27T17:32:33.880Z,2.70
2023-02-27T17:37:36.621Z,2.50
2023-02-27T17:42:39.967Z,2.50
2023-02-27T17:47:43.830Z,2.60
2023-02-27T17:52:46.288Z,2.50
2023-02-27T17:57:49.401Z,2.40
2023-02-27T18:02:51.872Z,2.30
2023-02-27T18:07:55.548Z,2.40
2023-02-27T18:12:58.118Z,2.60
2023-02-27T18:18:00.642Z,3.00
2023-02-27T18:23:04.054Z,3.10
2023-02-27T18:28:08.111Z,3.10
2023-02-27T18:33:10.696Z,3.10
2023-02-27T18:38:13.309Z,3.00
2023-02-27T18:43:15.827Z,3.10
2023-02-27T18:48:18.717Z,3.40
2023-02-27T18:53:21.204Z,3.90
2023-02-27T18:58:23.741Z,4.70
2023-02-27T19:03:27.339Z,4.80
2023-02-27T19:08:30.502Z,4.20
2023-02-27T19:13:33.045Z,3.80
2023-02-27T19:18:35.637Z,3.50
2023-02-27T19:23:38.997Z,3.70
2023-02-27T19:28:41.626Z,3.70
2023-02-27T19:33:44.100Z,3.90
2023-02-27T19:38:46.572Z,3.60
2023-02-27T19:43:50.447Z,3.80
2023-02-27T19:48:54.369Z,3.80
2023-02-27T19:53:57.028Z,3.50
2023-02-27T19:59:00.921Z,3.20
2023-02-27T20:04:04.040Z,2.70
2023-02-27T20:09:06.602Z,2.40
2023-02-27T20:14:09.562Z,2.30
2023-02-27T20:19:15.140Z,2.20
2023-02-27T20:24:18.828Z,2.30
2023-02-27T20:29:23.935Z,2.20
2023-02-27T20:34:27.108Z,2.20
2023-02-27T20:39:29.701Z,2.20
2023-02-27T20:44:32.231Z,2.50
2023-02-27T20:49:36.020Z,2.40
2023-02-27T20:54:39.709Z,2.30
2023-02-27T20:59:42.207Z,1.90
2023-02-27T21:04:47.306Z,1.90
2023-02-27T21:09:50.863Z,1.70
2023-02-27T21:14:54.121Z,1.70
2023-02-27T21:24:59.474Z,1.10
2023-02-27T21:30:06.039Z,0.60
2023-02-27T21:35:09.321Z,0.50
2023-02-27T21:40:12.608Z,0.50
2023-02-27T21:45:15.187Z,0.50
2023-02-27T21:50:18.328Z,0.10
2023-02-27T21:55:21.263Z,0.00
2023-02-27T22:00:26.561Z,0.00
2023-02-27T22:05:29.125Z,0.10
2023-02-27T22:10:32.164Z,-0.20
2023-02-27T22:15:36.241Z,-0.40
2023-02-27T22:20:40.232Z,-0.50
2023-02-27T22:25:43.000Z,-0.60
2023-02-27T22:30:45.946Z,-0.70
2023-02-27T22:35:48.505Z,-0.70
2023-02-27T22:40:51.331Z,-0.50
2023-02-27T22:45:54.027Z,-0.70
2023-02-27T22:51:03.247Z,-0.90
2023-02-27T22:56:12.019Z,-1.10
2023-02-27T23:01:26.234Z,-1.20
2023-02-27T23:06:35.023Z,-1.30
2023-02-27T23:11:37.541Z,-1.30
2023-02-27T23:16:40.279Z,-1.20
2023-02-27T23:21:43.054Z,-1.00
2023-02-27T23:26:48.930Z,-1.30
2023-02-27T23:31:51.646Z,-1.40
2023-02-27T23:36:54.266Z,-1.50
2023-02-27T23:41:56.683Z,-1.20
2023-02-27T23:46:59.305Z,-1.10
2023-02-27T23:52:01.773Z,-0.90
2023-02-27T23:57:04.334Z,-1.00
